Perryhall, Maryland
Current Conditions -  °F | °C
As of 7:45 PM on Monday 26 Jan 2015 (Local Time) from KMTN Reporting Station
Light Snow Light Snow  
Wind Chill: 23°   Ceiling: 4700
Heat Index: 30°   Visibility: 10mi
Dew Point: 27°   Wind: 7mph
Humidity: 86%   Direction: 340°NNW
Pressure: 29.76"   Gusts: NA
Location:  39.4067°N, 76.447°W
Report Text: KMTN 270045Z 34006KT 10SM -SN SCT017 OVC047 M01/M03 A2976
Loading
Personal Weather Stations






























Interactive Weather Map New forecast layout! Learn more

10-Day Weather Forecast

Advertisements
Track Severe Weather on mobile